Time;durP1;ratioP1;P1;durP2;ratioP2;P2;SDS_P1;SDS_P2;PMS_P1;PMS_P2;Temp;Humidity;BMP_temperature;BMP_pressure;BME280_temperature;BME280_humidity;BME280_pressure;Samples;Min_cycle;Max_cycle;Signal;HPM_P1;HPM_P2
2022/07/12 00:01:52;;;;;;;3.60;2.35;;;16.80;99.90;;;;;;5031988;28;20056;-74
2022/07/12 00:04:18;;;;;;;3.30;1.90;;;16.80;99.90;;;;;;5038624;28;20037;-75
2022/07/12 00:06:43;;;;;;;1.95;1.85;;;16.70;99.90;;;;;;5034212;28;20434;-75
2022/07/12 00:09:09;;;;;;;2.10;1.73;;;16.70;99.90;;;;;;5033215;28;20194;-74
2022/07/12 00:11:35;;;;;;;2.30;2.08;;;16.70;99.90;;;;;;5036040;28;20036;-75
2022/07/12 00:14:02;;;;;;;6.03;2.05;;;16.70;99.90;;;;;;5026681;28;20037;-74
2022/07/12 00:16:28;;;;;;;2.90;2.42;;;16.80;99.90;;;;;;5037797;28;20102;-75
2022/07/12 00:18:54;;;;;;;2.40;2.20;;;16.70;99.90;;;;;;5027995;28;20497;-75
2022/07/12 00:21:20;;;;;;;2.38;2.17;;;16.60;99.90;;;;;;5033797;28;20025;-75
2022/07/12 00:23:45;;;;;;;2.55;2.35;;;16.60;99.90;;;;;;5033723;28;20041;-74
2022/07/12 00:26:11;;;;;;;2.78;2.20;;;16.60;99.90;;;;;;5035896;28;20318;-75
2022/07/12 00:28:37;;;;;;;3.55;2.33;;;16.50;99.90;;;;;;5018507;28;20059;-74
2022/07/12 00:31:03;;;;;;;2.13;1.92;;;16.40;99.90;;;;;;5038935;28;20025;-75
2022/07/12 00:33:29;;;;;;;5.25;2.15;;;16.40;99.90;;;;;;5034445;28;20105;-75
2022/07/12 00:35:55;;;;;;;3.20;2.17;;;16.40;99.90;;;;;;5035996;28;20412;-75
2022/07/12 00:38:21;;;;;;;2.92;2.20;;;16.40;99.90;;;;;;5034801;28;20536;-75
2022/07/12 00:40:47;;;;;;;2.58;2.38;;;16.50;99.90;;;;;;5037911;28;20032;-74
2022/07/12 00:43:13;;;;;;;2.58;2.38;;;16.50;99.90;;;;;;5035658;28;20404;-74
2022/07/12 00:45:39;;;;;;;2.15;1.98;;;16.50;99.90;;;;;;5034511;28;20120;-74
2022/07/12 00:48:05;;;;;;;2.28;2.08;;;16.40;99.90;;;;;;5034288;28;20025;-75
2022/07/12 00:50:31;;;;;;;4.28;2.05;;;16.40;99.90;;;;;;5035894;28;20032;-75
2022/07/12 00:52:58;;;;;;;3.15;2.17;;;16.30;99.90;;;;;;5030033;28;20029;-75
2022/07/12 00:55:24;;;;;;;3.22;2.00;;;16.30;99.90;;;;;;5035982;28;20032;-74
2022/07/12 00:57:50;;;;;;;2.25;2.00;;;16.30;99.90;;;;;;5036552;28;20033;-75
2022/07/12 01:00:27;;;;;;;2.85;2.47;;;16.30;99.90;;;;;;5030648;28;20395;-75
2022/07/12 01:02:55;;;;;;;3.42;1.95;;;16.30;99.90;;;;;;5026062;28;20068;-74
2022/07/12 01:05:21;;;;;;;2.50;2.30;;;16.30;99.90;;;;;;5031898;28;20075;-74
2022/07/12 01:07:47;;;;;;;4.18;2.85;;;16.30;99.90;;;;;;5031325;28;20060;-75
2022/07/12 01:10:12;;;;;;;2.28;2.03;;;16.30;99.90;;;;;;5031125;28;20017;-75
2022/07/12 01:12:38;;;;;;;3.30;2.10;;;16.40;99.90;;;;;;5036679;28;20040;-74
2022/07/12 01:15:08;;;;;;;2.70;2.20;;;16.30;99.90;;;;;;5020424;28;20395;-75
2022/07/12 01:17:35;;;;;;;2.40;2.10;;;16.30;99.90;;;;;;5032369;28;20028;-74
2022/07/12 01:20:01;;;;;;;2.58;2.33;;;16.20;99.90;;;;;;5034518;28;20030;-74
2022/07/12 01:22:40;;;;;;;3.78;2.13;;;16.20;99.90;;;;;;5031613;28;20463;-75
2022/07/12 01:25:06;;;;;;;2.97;2.47;;;16.10;99.90;;;;;;5035454;28;20521;-75
2022/07/12 01:27:32;;;;;;;3.22;2.13;;;16.00;99.90;;;;;;5034583;28;20056;-75
2022/07/12 01:29:58;;;;;;;2.30;2.20;;;16.00;99.90;;;;;;5034339;28;20028;-75
2022/07/12 01:32:24;;;;;;;3.17;2.40;;;15.90;99.90;;;;;;5033443;28;20036;-75
2022/07/12 01:35:02;;;;;;;2.38;2.28;;;15.80;99.90;;;;;;5035774;28;20101;-75
2022/07/12 01:37:35;;;;;;;6.28;3.63;;;15.80;99.90;;;;;;5029831;28;20491;-74
2022/07/12 01:40:04;;;;;;;3.53;2.33;;;15.80;99.90;;;;;;5032520;28;20059;-75
2022/07/12 01:42:30;;;;;;;3.03;2.30;;;15.70;99.90;;;;;;5036215;28;20051;-75
2022/07/12 01:44:56;;;;;;;3.08;2.40;;;15.70;99.90;;;;;;5032572;28;20028;-74
2022/07/12 01:47:27;;;;;;;5.20;3.00;;;15.60;99.90;;;;;;5012423;28;20075;-74
2022/07/12 01:49:53;;;;;;;4.43;2.65;;;15.60;99.90;;;;;;5031772;28;20060;-75
2022/07/12 01:52:20;;;;;;;2.80;2.60;;;15.50;99.90;;;;;;5026074;28;20104;-74
2022/07/12 01:54:46;;;;;;;4.32;2.92;;;15.50;99.90;;;;;;5035528;28;20051;-74
2022/07/12 01:57:12;;;;;;;3.63;2.47;;;15.50;99.90;;;;;;5034768;28;20033;-74
2022/07/12 01:59:39;;;;;;;3.13;2.60;;;15.40;99.90;;;;;;5034399;28;20043;-74
2022/07/12 02:02:05;;;;;;;3.88;2.75;;;15.40;99.90;;;;;;5034572;28;20056;-74
2022/07/12 02:04:31;;;;;;;2.88;2.53;;;15.40;99.90;;;;;;5036179;28;20601;-74
2022/07/12 02:06:57;;;;;;;3.45;3.15;;;15.30;99.90;;;;;;5032541;28;20168;-74
2022/07/12 02:09:23;;;;;;;2.42;2.22;;;15.30;99.90;;;;;;5032240;28;20474;-74
2022/07/12 02:11:49;;;;;;;2.53;2.22;;;15.30;99.90;;;;;;5029708;28;20036;-75
2022/07/12 02:14:16;;;;;;;2.78;2.55;;;15.30;99.90;;;;;;5036571;28;20036;-75
2022/07/12 02:16:42;;;;;;;3.97;2.53;;;15.30;99.90;;;;;;5034496;28;20040;-75
2022/07/12 02:19:10;;;;;;;2.88;2.33;;;15.30;99.90;;;;;;5032644;28;20476;-74
2022/07/12 02:21:36;;;;;;;3.85;2.20;;;15.40;99.90;;;;;;5036277;28;20036;-75
2022/07/12 02:24:02;;;;;;;3.15;2.53;;;15.40;99.90;;;;;;5031904;28;20465;-75
2022/07/12 02:26:28;;;;;;;2.97;2.65;;;15.40;99.90;;;;;;5033562;28;21382;-75
2022/07/12 02:28:53;;;;;;;2.95;2.30;;;15.40;99.90;;;;;;5030383;28;20032;-74
2022/07/12 02:31:19;;;;;;;2.83;2.42;;;15.40;99.90;;;;;;5032847;28;20661;-74
2022/07/12 02:33:45;;;;;;;3.58;2.55;;;15.30;99.90;;;;;;5032209;28;20257;-75
2022/07/12 02:36:10;;;;;;;3.05;2.47;;;15.30;99.90;;;;;;5034591;28;20483;-74
2022/07/12 02:38:36;;;;;;;6.93;3.03;;;15.30;99.90;;;;;;5028142;28;20235;-75
2022/07/12 02:41:02;;;;;;;3.22;2.92;;;15.30;99.90;;;;;;5030883;28;20307;-74
2022/07/12 02:43:31;;;;;;;2.97;2.70;;;15.30;99.90;;;;;;5031094;28;20041;-74
2022/07/12 02:46:17;;;;;;;3.28;2.72;;;15.40;99.90;;;;;;5034846;28;20031;-75
2022/07/12 02:48:42;;;;;;;2.72;2.40;;;15.50;99.90;;;;;;5032831;28;20115;-75
2022/07/12 02:51:09;;;;;;;4.57;2.60;;;15.40;99.90;;;;;;5035486;28;20033;-75
2022/07/12 02:53:35;;;;;;;3.00;2.50;;;15.50;99.90;;;;;;5030667;28;20131;-74
2022/07/12 02:56:02;;;;;;;4.20;2.67;;;15.50;99.90;;;;;;5033413;28;20082;-75
2022/07/12 02:58:28;;;;;;;3.38;2.63;;;15.50;99.90;;;;;;5035034;28;20365;-74
2022/07/12 03:00:54;;;;;;;3.08;2.78;;;15.60;99.90;;;;;;5035437;28;20036;-75
2022/07/12 03:03:20;;;;;;;3.30;2.58;;;15.60;99.90;;;;;;5032740;28;20051;-75
2022/07/12 03:05:45;;;;;;;2.90;2.70;;;15.60;99.90;;;;;;5035935;28;20025;-75
2022/07/12 03:08:12;;;;;;;6.15;2.95;;;15.50;99.90;;;;;;5034033;28;20090;-74
2022/07/12 03:10:39;;;;;;;3.63;2.95;;;15.40;99.90;;;;;;5034243;28;20037;-75
2022/07/12 03:13:05;;;;;;;2.80;2.60;;;15.40;99.90;;;;;;5027144;28;20321;-75
2022/07/12 03:15:31;;;;;;;3.38;3.08;;;15.30;99.90;;;;;;5037698;28;20024;-74
2022/07/12 03:17:58;;;;;;;3.95;2.63;;;15.30;99.90;;;;;;5031480;28;20071;-75
2022/07/12 03:20:24;;;;;;;3.53;3.22;;;15.20;99.90;;;;;;5034475;28;20037;-75
2022/07/12 03:22:51;;;;;;;3.10;2.80;;;15.10;99.90;;;;;;5031004;28;20043;-75
2022/07/12 03:25:18;;;;;;;3.53;2.85;;;15.10;99.90;;;;;;5031607;28;20511;-75
2022/07/12 03:27:44;;;;;;;4.10;3.10;;;15.10;99.90;;;;;;5031927;28;20122;-75
2022/07/12 03:30:10;;;;;;;5.03;2.72;;;15.10;99.90;;;;;;5036076;28;20060;-74
2022/07/12 03:32:36;;;;;;;3.08;2.67;;;15.00;99.90;;;;;;5033685;28;20113;-74
2022/07/12 03:35:02;;;;;;;3.25;3.05;;;15.00;99.90;;;;;;5034470;28;20094;-74
2022/07/12 03:37:42;;;;;;;2.88;2.67;;;14.90;99.90;;;;;;5022071;28;20302;-74
2022/07/12 03:40:08;;;;;;;3.40;3.10;;;14.80;99.90;;;;;;5020906;28;20184;-75
2022/07/12 03:42:34;;;;;;;4.25;2.58;;;14.70;99.90;;;;;;5034067;28;20033;-75
2022/07/12 03:45:00;;;;;;;4.35;2.97;;;14.70;99.90;;;;;;5038357;28;20465;-75
2022/07/12 03:47:26;;;;;;;5.03;2.58;;;14.60;99.90;;;;;;5034666;28;20043;-75
2022/07/12 03:49:52;;;;;;;4.47;3.20;;;14.50;99.90;;;;;;5040660;28;20540;-75
2022/07/12 03:52:17;;;;;;;3.63;3.33;;;14.50;99.90;;;;;;5037327;28;20044;-75
2022/07/12 03:54:43;;;;;;;3.92;3.20;;;14.50;99.90;;;;;;5037806;28;20126;-74
2022/07/12 03:57:15;;;;;;;2.85;2.60;;;14.50;99.90;;;;;;5017676;28;20060;-75
2022/07/12 03:59:44;;;;;;;;;;;14.50;99.90;;;;;;5031362;28;20051;-75
2022/07/12 04:02:10;;;;;;;4.63;2.92;;;14.50;99.90;;;;;;5035529;28;20036;-75
2022/07/12 04:04:36;;;;;;;2.75;2.55;;;14.50;99.90;;;;;;5039643;28;20103;-74
2022/07/12 04:07:01;;;;;;;4.93;3.35;;;14.60;99.90;;;;;;5029865;28;20043;-75
2022/07/12 04:09:27;;;;;;;8.68;3.05;;;14.60;99.90;;;;;;5036682;28;20091;-74
2022/07/12 04:11:53;;;;;;;3.30;2.60;;;14.50;99.90;;;;;;5036864;28;20025;-74
2022/07/12 04:14:18;;;;;;;4.43;2.85;;;14.50;99.90;;;;;;5036449;28;20127;-74
2022/07/12 04:16:44;;;;;;;3.33;2.85;;;14.50;99.90;;;;;;5033634;28;20083;-74
2022/07/12 04:19:10;;;;;;;4.15;2.90;;;14.50;99.90;;;;;;5031850;28;20069;-74
2022/07/12 04:21:36;;;;;;;3.80;2.97;;;14.50;99.90;;;;;;5036066;28;20027;-74
2022/07/12 04:24:03;;;;;;;3.88;3.20;;;14.50;99.90;;;;;;5036594;28;20489;-75
2022/07/12 04:26:29;;;;;;;4.15;3.38;;;14.50;99.90;;;;;;5035374;28;20032;-75
2022/07/12 04:28:54;;;;;;;3.33;3.00;;;14.60;99.90;;;;;;5036036;28;20032;-74
2022/07/12 04:31:20;;;;;;;3.88;3.58;;;14.60;99.90;;;;;;5033580;28;20087;-75
2022/07/12 04:33:46;;;;;;;3.85;3.05;;;14.70;99.90;;;;;;5034580;28;20032;-74
2022/07/12 04:36:11;;;;;;;3.55;3.25;;;14.70;99.90;;;;;;5028780;28;20452;-74
2022/07/12 04:38:37;;;;;;;4.90;3.17;;;14.80;99.90;;;;;;5034497;28;20028;-74
2022/07/12 04:41:03;;;;;;;3.80;3.50;;;14.90;99.90;;;;;;5035264;28;20025;-75
2022/07/12 04:43:29;;;;;;;3.55;3.08;;;15.00;99.90;;;;;;5031580;28;20380;-74
2022/07/12 04:45:55;;;;;;;5.05;3.80;;;15.10;99.90;;;;;;5034146;28;20060;-74
2022/07/12 04:48:21;;;;;;;3.22;2.83;;;15.30;99.90;;;;;;5033196;28;20032;-75
2022/07/12 04:50:46;;;;;;;3.58;2.85;;;15.40;99.90;;;;;;5036448;28;20276;-74
2022/07/12 04:53:12;;;;;;;6.68;3.22;;;15.60;99.90;;;;;;5034923;28;20454;-74
2022/07/12 04:55:38;;;;;;;5.32;3.05;;;15.70;99.90;;;;;;5037205;28;20029;-75
2022/07/12 04:58:06;;;;;;;5.70;2.85;;;15.80;99.90;;;;;;5033013;28;20032;-75
2022/07/12 05:00:32;;;;;;;4.78;2.85;;;16.00;99.90;;;;;;5036678;28;20021;-75
2022/07/12 05:02:58;;;;;;;2.78;2.50;;;16.10;99.90;;;;;;5030965;28;20045;-75
2022/07/12 05:05:23;;;;;;;3.22;2.50;;;16.20;99.90;;;;;;5034134;28;20204;-75
2022/07/12 05:07:49;;;;;;;5.40;3.00;;;16.30;99.90;;;;;;5033655;28;20059;-75
2022/07/12 05:10:15;;;;;;;3.00;2.78;;;16.40;99.90;;;;;;5035733;28;20064;-75
2022/07/12 05:12:40;;;;;;;4.22;3.00;;;16.50;99.90;;;;;;5034543;28;20168;-74
2022/07/12 05:15:07;;;;;;;2.53;2.33;;;16.50;99.90;;;;;;5034613;28;20429;-75
2022/07/12 05:17:33;;;;;;;5.95;2.90;;;16.60;99.90;;;;;;5019583;28;20029;-75
2022/07/12 05:19:59;;;;;;;2.90;2.60;;;16.60;99.90;;;;;;5037331;28;20381;-75
2022/07/12 05:22:25;;;;;;;3.33;2.45;;;16.80;99.90;;;;;;5019564;28;20114;-75
2022/07/12 05:24:50;;;;;;;4.88;2.50;;;16.90;99.90;;;;;;5016739;28;20380;-75
2022/07/12 05:27:16;;;;;;;2.58;2.42;;;17.00;99.90;;;;;;5014304;28;20037;-75
2022/07/12 05:29:42;;;;;;;2.40;2.08;;;17.20;99.90;;;;;;5031339;28;20089;-74
2022/07/12 05:32:08;;;;;;;2.70;2.50;;;17.30;99.90;;;;;;5029664;28;20036;-75
2022/07/12 05:34:33;;;;;;;2.60;2.35;;;17.30;99.90;;;;;;5031183;28;20037;-75
2022/07/12 05:36:59;;;;;;;2.20;2.10;;;17.40;99.90;;;;;;5029745;28;20407;-75
2022/07/12 05:39:25;;;;;;;4.45;2.83;;;17.30;99.90;;;;;;5033141;28;20227;-75
2022/07/12 05:41:50;;;;;;;3.10;2.75;;;17.40;99.90;;;;;;5031341;28;20713;-75
2022/07/12 05:44:19;;;;;;;2.65;2.45;;;17.40;99.90;;;;;;5031461;28;20033;-75
2022/07/12 05:46:46;;;;;;;2.85;2.60;;;17.50;99.90;;;;;;5031184;28;20111;-75
2022/07/12 05:49:11;;;;;;;4.60;2.85;;;17.60;99.90;;;;;;5030344;28;20151;-75
2022/07/12 05:54:21;;;;;;;3.05;2.85;;;17.70;99.90;;;;;;5017973;28;20118;-75
2022/07/12 05:56:47;;;;;;;2.72;2.50;;;17.90;99.90;;;;;;5029992;28;20535;-76
2022/07/12 05:59:12;;;;;;;4.60;2.63;;;17.90;99.90;;;;;;5022806;28;20044;-75
2022/07/12 06:01:38;;;;;;;2.95;2.72;;;17.90;99.90;;;;;;5004086;28;20444;-75
2022/07/12 06:04:04;;;;;;;3.33;2.60;;;17.90;99.90;;;;;;5023402;28;20098;-75
2022/07/12 06:06:29;;;;;;;2.88;2.58;;;18.10;99.90;;;;;;5028461;28;20068;-75
2022/07/12 06:08:55;;;;;;;4.38;2.70;;;18.20;99.90;;;;;;5026366;28;20033;-75
2022/07/12 06:11:21;;;;;;;2.58;2.38;;;18.40;99.90;;;;;;5031340;28;20029;-75
2022/07/12 06:13:46;;;;;;;4.55;2.40;;;18.60;99.90;;;;;;5012381;28;20025;-75
2022/07/12 06:16:12;;;;;;;2.92;2.50;;;18.70;99.90;;;;;;5027912;28;20029;-75
2022/07/12 06:18:38;;;;;;;4.72;2.38;;;18.80;99.90;;;;;;5031775;28;20104;-75
2022/07/12 06:21:04;;;;;;;2.92;2.72;;;18.90;99.90;;;;;;5029398;28;20025;-74
2022/07/12 06:23:30;;;;;;;2.33;2.13;;;18.70;99.90;;;;;;5023999;28;20407;-75
2022/07/12 06:25:56;;;;;;;2.33;2.15;;;18.90;99.90;;;;;;5024658;28;20530;-75
2022/07/12 06:28:22;;;;;;;2.63;2.42;;;19.00;99.90;;;;;;5019520;28;20109;-75
2022/07/12 06:30:47;;;;;;;2.80;2.22;;;18.90;99.90;;;;;;5003839;28;20031;-75
2022/07/12 06:33:13;;;;;;;5.30;2.35;;;18.90;99.90;;;;;;5025974;28;20115;-75
2022/07/12 06:35:39;;;;;;;3.22;2.45;;;19.10;99.90;;;;;;5024969;28;20053;-75
2022/07/12 06:38:04;;;;;;;3.17;2.97;;;19.30;99.90;;;;;;5021113;28;20478;-75
2022/07/12 06:40:30;;;;;;;3.85;2.28;;;19.40;99.90;;;;;;5019197;28;20025;-75
2022/07/12 06:42:56;;;;;;;4.22;2.45;;;19.40;99.90;;;;;;5031773;28;20504;-75
2022/07/12 06:45:22;;;;;;;4.13;2.67;;;19.60;99.90;;;;;;5024935;28;20053;-78
2022/07/12 06:47:48;;;;;;;4.03;2.92;;;19.80;99.90;;;;;;5008075;28;20029;-80
2022/07/12 06:50:13;;;;;;;5.45;3.03;;;20.00;99.90;;;;;;5029983;28;20122;-78
2022/07/12 06:52:39;;;;;;;3.35;2.65;;;20.20;99.90;;;;;;5029515;28;20048;-77
2022/07/12 06:55:05;;;;;;;4.43;3.22;;;20.50;99.90;;;;;;5013121;28;20060;-77
2022/07/12 06:57:31;;;;;;;5.55;2.90;;;20.80;99.90;;;;;;5017591;28;20029;-78
2022/07/12 06:59:57;;;;;;;3.95;3.17;;;21.10;99.90;;;;;;5021194;28;20067;-77
2022/07/12 07:02:22;;;;;;;2.75;2.47;;;21.20;99.90;;;;;;5018270;28;20037;-78
2022/07/12 07:04:48;;;;;;;5.35;2.85;;;21.30;99.90;;;;;;5020122;28;20056;-77
2022/07/12 07:07:14;;;;;;;4.78;2.80;;;21.20;99.90;;;;;;5017418;28;20017;-79
2022/07/12 07:09:41;;;;;;;6.07;2.85;;;21.30;99.90;;;;;;5030243;28;20513;-80
2022/07/12 07:12:07;;;;;;;3.92;3.58;;;21.30;99.90;;;;;;5029577;28;20570;-80
2022/07/12 07:14:33;;;;;;;4.43;3.35;;;21.30;99.90;;;;;;5033900;28;20024;-80
2022/07/12 07:16:59;;;;;;;6.97;4.05;;;21.20;99.90;;;;;;5030869;28;20460;-80
2022/07/12 07:19:26;;;;;;;4.43;3.08;;;21.20;99.90;;;;;;5040657;28;20371;-79
2022/07/12 07:21:53;;;;;;;8.57;3.70;;;21.10;99.90;;;;;;5034056;28;20308;-80
2022/07/12 07:24:19;;;;;;;3.80;3.42;;;21.30;99.90;;;;;;5019764;28;20804;-79
2022/07/12 07:26:45;;;;;;;6.95;3.25;;;21.30;99.90;;;;;;5018978;28;20035;-79
2022/07/12 07:31:55;;;;;;;4.28;2.40;;;21.90;99.90;;;;;;5039143;28;20036;-80
2022/07/12 07:34:22;;;;;;;4.80;2.55;;;22.20;99.90;;;;;;5034436;28;20029;-80
2022/07/12 07:36:47;;;;;;;5.75;2.90;;;23.20;99.90;;;;;;5024537;28;20025;-78
2022/07/12 07:39:13;;;;;;;6.20;2.38;;;23.90;99.90;;;;;;5023968;28;20032;-81
2022/07/12 07:41:39;;;;;;;4.47;2.20;;;25.50;99.90;;;;;;5018725;28;20025;-82
2022/07/12 07:44:05;;;;;;;2.20;1.85;;;26.20;99.90;;;;;;5018651;28;20125;-82
2022/07/12 07:46:31;;;;;;;3.03;2.10;;;26.60;99.90;;;;;;5007707;28;20030;-82
2022/07/12 07:48:56;;;;;;;2.80;1.90;;;27.50;99.90;;;;;;5021300;28;20404;-82
2022/07/12 07:51:22;;;;;;;3.05;1.50;;;28.50;99.80;;;;;;5028287;28;20025;-83
2022/07/12 07:53:47;;;;;;;3.45;1.42;;;31.70;92.10;;;;;;5010885;28;20592;-82
2022/07/12 07:56:13;;;;;;;4.68;1.48;;;32.50;71.60;;;;;;5049842;28;20547;-82
2022/07/12 07:58:39;;;;;;;3.70;1.63;;;32.90;68.00;;;;;;5052305;28;20092;-82
2022/07/12 08:01:05;;;;;;;1.35;1.25;;;33.40;60.00;;;;;;5056540;28;20606;-82
2022/07/12 08:03:30;;;;;;;3.90;1.15;;;34.10;59.40;;;;;;5055876;28;20709;-82
2022/07/12 08:05:58;;;;;;;2.60;1.10;;;35.90;53.90;;;;;;5034530;28;20476;-82
2022/07/12 08:08:24;;;;;;;1.45;1.10;;;37.50;47.60;;;;;;5023966;28;20033;-82
2022/07/12 08:10:53;;;;;;;3.88;1.08;;;39.70;41.80;;;;;;5034168;28;20115;-82
2022/07/12 08:13:18;;;;;;;2.10;1.10;;;41.40;39.80;;;;;;5031187;28;20055;-83
2022/07/12 08:15:44;;;;;;;2.20;0.77;;;41.80;37.50;;;;;;5055540;28;20055;-82
2022/07/12 08:18:10;;;;;;;2.80;0.80;;;42.50;37.40;;;;;;5049755;28;20040;-82
2022/07/12 08:20:35;;;;;;;1.85;0.60;;;43.60;34.50;;;;;;5035708;28;20399;-80
2022/07/12 08:23:02;;;;;;;2.15;0.80;;;44.10;35.20;;;;;;5031761;28;20040;-81
2022/07/12 08:25:28;;;;;;;0.75;0.70;;;44.60;31.50;;;;;;5020206;28;20076;-82
2022/07/12 08:27:53;;;;;;;1.75;1.00;;;43.50;32.40;;;;;;5043964;28;20178;-82
2022/07/12 08:30:19;;;;;;;2.85;0.70;;;41.10;35.50;;;;;;5028283;28;20092;-82
2022/07/12 08:32:46;;;;;;;2.33;1.10;;;39.10;39.60;;;;;;5025027;28;20529;-82
2022/07/12 08:35:13;;;;;;;1.92;0.70;;;37.00;39.90;;;;;;5040280;28;20045;-82
2022/07/12 08:37:39;;;;;;;1.67;0.70;;;35.90;42.60;;;;;;5022434;28;20048;-82
2022/07/12 08:40:05;;;;;;;3.17;0.90;;;35.10;47.20;;;;;;5022657;28;20368;-82
2022/07/12 08:42:33;;;;;;;3.03;0.80;;;36.00;43.90;;;;;;5038849;28;20060;-82
2022/07/12 08:44:58;;;;;;;1.77;0.82;;;37.10;44.80;;;;;;5023246;28;20020;-78
2022/07/12 08:47:24;;;;;;;6.28;1.00;;;36.60;43.60;;;;;;5036451;28;20567;-82
2022/07/12 08:50:10;;;;;;;4.30;1.17;;;36.30;42.80;;;;;;5044999;28;20493;-83
2022/07/12 08:52:41;;;;;;;2.75;0.68;;;37.60;45.30;;;;;;5054304;28;20024;-80
2022/07/12 08:55:19;;;;;;;3.72;0.80;;;39.00;41.20;;;;;;5055638;28;20044;-80
2022/07/12 08:57:45;;;;;;;1.88;1.00;;;38.90;38.60;;;;;;5037788;28;20031;-81
2022/07/12 09:00:11;;;;;;;2.03;0.80;;;38.90;40.30;;;;;;5052285;28;20032;-79
2022/07/12 09:02:47;;;;;;;5.50;0.93;;;38.70;38.40;;;;;;5053269;28;20043;-82
2022/07/12 09:05:14;;;;;;;3.67;0.80;;;37.50;37.90;;;;;;5045718;28;20385;-82
2022/07/12 09:07:40;;;;;;;1.20;0.80;;;37.70;39.00;;;;;;5020291;28;20158;-82
2022/07/12 09:10:08;;;;;;;3.58;0.82;;;38.00;40.80;;;;;;5038542;28;20102;-80
2022/07/12 09:12:34;;;;;;;3.90;0.80;;;37.20;38.10;;;;;;5041774;28;20039;-81
2022/07/12 09:15:19;;;;;;;2.20;0.70;;;36.40;38.70;;;;;;5043357;28;21256;-82
2022/07/12 09:18:13;;;;;;;0.88;0.70;;;35.80;44.00;;;;;;5046231;28;20048;-81
2022/07/12 09:20:41;;;;;;;2.53;0.70;;;35.20;42.30;;;;;;5048325;28;20913;-81
2022/07/12 09:23:09;;;;;;;5.35;0.90;;;34.80;46.10;;;;;;5041749;28;20519;-80
2022/07/12 09:25:43;;;;;;;1.33;0.82;;;34.90;47.90;;;;;;5028842;28;20025;-82
2022/07/12 09:28:09;;;;;;;2.60;0.60;;;34.80;47.90;;;;;;5044259;28;20024;-81
2022/07/12 09:30:39;;;;;;;3.03;0.90;;;34.90;45.20;;;;;;5033252;28;20040;-81
2022/07/12 09:36:17;;;;;;;1.40;0.90;;;35.40;46.70;;;;;;5045354;28;20047;-81
2022/07/12 09:38:54;;;;;;;6.25;0.88;;;35.60;44.50;;;;;;5033927;28;20618;-81
2022/07/12 09:41:23;;;;;;;1.17;0.93;;;35.70;43.40;;;;;;5050393;28;20032;-85
2022/07/12 09:43:50;;;;;;;5.88;1.20;;;35.70;46.20;;;;;;5050056;28;20047;-83
2022/07/12 09:46:17;;;;;;;3.22;0.80;;;35.60;46.50;;;;;;5050233;28;20111;-83
2022/07/12 09:48:44;;;;;;;2.60;1.20;;;35.20;48.20;;;;;;5052417;28;20086;-81
2022/07/12 09:51:16;;;;;;;2.72;0.80;;;34.80;47.60;;;;;;5033966;28;20407;-82
2022/07/12 09:53:46;;;;;;;2.85;1.05;;;33.90;46.50;;;;;;5052354;28;20041;-84
2022/07/12 09:56:14;;;;;;;4.68;1.15;;;33.20;50.90;;;;;;5052749;28;20115;-81
2022/07/12 09:58:53;;;;;;;1.40;0.90;;;32.90;52.90;;;;;;5034743;28;20032;-82
2022/07/12 10:01:19;;;;;;;4.57;1.02;;;32.20;53.80;;;;;;5060177;28;20119;-80
2022/07/12 10:03:46;;;;;;;2.05;1.23;;;31.60;60.60;;;;;;5049837;28;20554;-81
2022/07/12 10:06:15;;;;;;;1.50;1.05;;;31.00;55.80;;;;;;5040056;28;20035;-81
2022/07/12 10:08:41;;;;;;;1.90;0.80;;;30.50;59.80;;;;;;5040821;28;20040;-81
2022/07/12 10:11:07;;;;;;;4.80;0.82;;;30.40;65.10;;;;;;5056031;28;20029;-80
2022/07/12 10:13:34;;;;;;;3.22;0.85;;;30.30;60.10;;;;;;5050580;28;20074;-82
2022/07/12 10:16:01;;;;;;;1.63;1.02;;;30.60;67.30;;;;;;5034797;28;20511;-83
2022/07/12 10:18:28;;;;;;;2.80;0.95;;;30.60;61.10;;;;;;5044244;28;20123;-79
2022/07/12 10:20:54;;;;;;;2.92;1.20;;;30.90;63.70;;;;;;5045772;28;20036;-82
2022/07/12 10:23:20;;;;;;;1.30;1.00;;;31.50;60.10;;;;;;5050661;28;20032;-82
2022/07/12 10:25:48;;;;;;;3.17;0.80;;;32.20;61.30;;;;;;5050585;28;20039;-81
2022/07/12 10:28:14;;;;;;;1.55;0.80;;;32.80;53.90;;;;;;5049054;28;20058;-80
2022/07/12 10:30:50;;;;;;;7.45;0.88;;;33.60;56.70;;;;;;5053506;28;20059;-82
2022/07/12 10:33:22;;;;;;;2.35;0.63;;;33.90;47.00;;;;;;5049681;28;20467;-82
2022/07/12 10:36:03;;;;;;;2.55;1.20;;;34.30;49.30;;;;;;5050531;28;20029;-81
2022/07/12 10:38:29;;;;;;;2.83;1.35;;;34.80;51.10;;;;;;5052842;28;20520;-79
2022/07/12 10:40:55;;;;;;;2.25;0.90;;;34.10;47.10;;;;;;5035281;28;20160;-81
2022/07/12 10:44:04;;;;;;;1.52;0.70;;;34.30;48.90;;;;;;5049734;28;20043;-82
2022/07/12 10:46:23;;;;;;;1.65;1.00;;;34.50;48.90;;;;;;5051604;28;20185;-81
2022/07/12 10:48:49;;;;;;;2.50;1.00;;;34.50;51.00;;;;;;5049993;28;20093;-82
2022/07/12 10:51:20;;;;;;;3.10;1.35;;;34.30;48.70;;;;;;5040024;28;20059;-79
2022/07/12 10:53:48;;;;;;;1.65;0.90;;;34.30;49.90;;;;;;5053569;28;20468;-84
2022/07/12 10:56:20;;;;;;;1.73;0.80;;;34.90;51.10;;;;;;4701587;28;10000222;-83
2022/07/12 10:58:54;;;;;;;1.42;1.08;;;36.40;50.00;;;;;;5051382;28;20040;-80
2022/07/12 11:01:21;;;;;;;4.13;1.20;;;36.40;43.50;;;;;;5058655;28;20111;-85
2022/07/12 11:04:02;;;;;;;5.63;2.42;;;36.80;45.90;;;;;;4688316;28;10000513;-83
2022/07/12 11:06:28;;;;;;;7.32;3.35;;;37.20;44.10;;;;;;5058394;28;20505;-81
2022/07/12 11:08:59;;;;;;;3.10;1.52;;;37.00;42.20;;;;;;5057234;28;20032;-85
2022/07/12 11:11:28;;;;;;;3.83;1.15;;;36.60;37.50;;;;;;5060971;28;20043;-88
2022/07/12 11:13:54;;;;;;;3.53;1.20;;;34.90;41.80;;;;;;5053294;28;20020;-89
2022/07/12 11:16:21;;;;;;;2.72;1.13;;;33.40;46.60;;;;;;5033908;28;20048;-82
2022/07/12 11:18:46;;;;;;;4.55;1.58;;;33.00;46.60;;;;;;5044512;28;20038;-85
2022/07/12 11:21:13;;;;;;;3.05;1.60;;;33.50;50.90;;;;;;5044609;28;20094;-90
2022/07/12 11:23:40;;;;;;;2.78;1.60;;;34.10;48.10;;;;;;5052319;28;20389;-88
2022/07/12 11:26:07;;;;;;;4.13;1.92;;;35.40;46.10;;;;;;5046733;28;20151;-85
2022/07/12 11:28:33;;;;;;;2.55;1.85;;;36.30;45.90;;;;;;5040632;28;20044;-79
2022/07/12 11:31:17;;;;;;;4.65;2.90;;;36.40;44.50;;;;;;5058103;28;20025;-83
2022/07/12 11:33:48;;;;;;;4.50;2.78;;;36.30;44.30;;;;;;5046193;28;20033;-84
2022/07/12 11:36:15;;;;;;;5.43;1.58;;;35.70;44.30;;;;;;5034948;28;20373;-86
2022/07/12 11:38:45;;;;;;;1.45;1.25;;;35.60;46.00;;;;;;5037713;28;20562;-88
2022/07/12 11:41:13;;;;;;;2.13;1.02;;;35.70;46.40;;;;;;5060480;28;20045;-85
2022/07/12 11:43:40;;;;;;;3.42;1.02;;;35.20;43.40;;;;;;5036016;28;20503;-85
2022/07/12 11:46:07;;;;;;;2.08;1.45;;;34.70;41.70;;;;;;5059996;28;20051;-84
2022/07/12 11:48:34;;;;;;;4.93;2.45;;;34.40;49.00;;;;;;5060376;28;20583;-84
2022/07/12 11:51:03;;;;;;;1.40;1.02;;;34.40;45.70;;;;;;5039560;28;20093;-84
2022/07/12 11:53:30;;;;;;;3.15;1.17;;;34.30;44.40;;;;;;5040805;28;20017;-80
2022/07/12 11:55:58;;;;;;;2.22;0.90;;;34.00;45.50;;;;;;5032961;28;22391;-79
2022/07/12 11:58:25;;;;;;;3.35;1.30;;;34.10;47.90;;;;;;5053738;28;20040;-78
2022/07/12 12:00:53;;;;;;;0.90;0.90;;;34.10;48.20;;;;;;5036319;28;20045;-78
2022/07/12 12:03:21;;;;;;;1.90;1.05;;;34.20;52.40;;;;;;5049663;28;20427;-77
2022/07/12 12:05:49;;;;;;;1.92;1.17;;;34.10;48.60;;;;;;5040255;28;20534;-78
2022/07/12 12:08:16;;;;;;;4.28;3.00;;;33.70;53.40;;;;;;5032752;28;20094;-86
2022/07/12 12:10:51;;;;;;;2.75;1.73;;;33.20;48.60;;;;;;5059200;28;20055;-82
2022/07/12 12:13:17;;;;;;;5.82;1.80;;;32.60;50.80;;;;;;5053758;28;22219;-82
2022/07/12 12:15:57;;;;;;;2.30;1.35;;;32.50;54.50;;;;;;5029739;28;20027;-81
2022/07/12 12:18:34;;;;;;;1.60;1.30;;;32.10;54.20;;;;;;5039049;28;20178;-86
2022/07/12 12:21:05;;;;;;;3.22;1.30;;;32.10;51.90;;;;;;5039393;28;20030;-84
2022/07/12 12:23:32;;;;;;;2.90;1.10;;;31.90;51.30;;;;;;4715321;28;9999813;-84
2022/07/12 12:26:13;;;;;;;2.45;1.05;;;31.60;55.10;;;;;;5046904;28;20016;-85
2022/07/12 12:28:53;;;;;;;2.70;1.33;;;31.90;57.70;;;;;;5053451;28;20109;-83
2022/07/12 12:31:21;;;;;;;3.58;1.40;;;32.30;55.80;;;;;;5053257;28;20024;-83
2022/07/12 12:33:52;;;;;;;3.00;1.25;;;32.80;58.10;;;;;;5032018;28;20178;-83
2022/07/12 12:36:22;;;;;;;1.48;1.13;;;33.50;58.60;;;;;;5042379;28;20033;-81
2022/07/12 12:38:50;;;;;;;4.78;1.35;;;33.70;48.00;;;;;;5041481;28;20103;-82
2022/07/12 12:41:17;;;;;;;4.10;1.10;;;33.40;46.60;;;;;;5063339;28;20056;-84
2022/07/12 12:43:43;;;;;;;2.50;1.30;;;33.10;51.60;;;;;;5036790;28;20488;-82
2022/07/12 12:46:09;;;;;;;3.00;1.27;;;32.50;50.90;;;;;;5045098;28;20067;-84
2022/07/12 12:48:35;;;;;;;1.48;1.08;;;31.80;50.90;;;;;;5039442;28;20103;-85
2022/07/12 12:51:05;;;;;;;1.48;0.90;;;31.30;53.50;;;;;;5044022;28;20085;-84
2022/07/12 12:53:31;;;;;;;3.67;1.13;;;31.00;54.90;;;;;;5058828;28;20033;-84
2022/07/12 12:55:57;;;;;;;7.70;1.20;;;30.80;62.20;;;;;;5045373;28;20052;-83
2022/07/12 12:58:25;;;;;;;4.47;1.17;;;30.60;57.00;;;;;;5044390;28;20490;-84